sensor_id;sensor_type;location;lat;lon;timestamp;pressure;altitude;pressure_sealevel;temperature;humidity
44044;BME280;29709;52.396;16.796;2024-02-21T00:01:04;102211.30;;;7.63;91.04
44044;BME280;29709;52.396;16.796;2024-02-21T00:04:18;102209.56;;;7.62;91.30
44044;BME280;29709;52.396;16.796;2024-02-21T00:07:31;102207.04;;;7.59;91.21
44044;BME280;29709;52.396;16.796;2024-02-21T00:10:44;102212.75;;;7.56;91.33
44044;BME280;29709;52.396;16.796;2024-02-21T00:13:57;102203.78;;;7.53;91.58
44044;BME280;29709;52.396;16.796;2024-02-21T00:17:11;102203.66;;;7.55;91.37
44044;BME280;29709;52.396;16.796;2024-02-21T00:20:24;102201.80;;;7.56;91.24
44044;BME280;29709;52.396;16.796;2024-02-21T00:23:39;102208.90;;;7.58;91.36
44044;BME280;29709;52.396;16.796;2024-02-21T00:26:53;102200.80;;;7.57;91.15
44044;BME280;29709;52.396;16.796;2024-02-21T00:30:07;102195.70;;;7.52;91.16
44044;BME280;29709;52.396;16.796;2024-02-21T00:33:23;102189.44;;;7.50;91.04
44044;BME280;29709;52.396;16.796;2024-02-21T00:36:36;102195.38;;;7.44;91.68
44044;BME280;29709;52.396;16.796;2024-02-21T00:39:50;102185.31;;;7.44;91.67
44044;BME280;29709;52.396;16.796;2024-02-21T00:43:03;102188.69;;;7.48;91.85
44044;BME280;29709;52.396;16.796;2024-02-21T00:46:16;102182.13;;;7.50;91.78
44044;BME280;29709;52.396;16.796;2024-02-21T00:49:29;102184.39;;;7.57;91.89
44044;BME280;29709;52.396;16.796;2024-02-21T00:53:18;102178.05;;;7.56;91.90
44044;BME280;29709;52.396;16.796;2024-02-21T00:56:31;102158.78;;;7.58;91.81
44044;BME280;29709;52.396;16.796;2024-02-21T00:59:44;102163.92;;;7.62;91.58
44044;BME280;29709;52.396;16.796;2024-02-21T01:02:57;102144.65;;;7.64;91.49
44044;BME280;29709;52.396;16.796;2024-02-21T01:06:10;102143.12;;;7.60;90.92
44044;BME280;29709;52.396;16.796;2024-02-21T01:09:23;102138.01;;;7.55;91.30
44044;BME280;29709;52.396;16.796;2024-02-21T01:12:36;102124.57;;;7.52;91.90
44044;BME280;29709;52.396;16.796;2024-02-21T01:15:49;102129.49;;;7.47;92.10
44044;BME280;29709;52.396;16.796;2024-02-21T01:19:03;102121.53;;;7.44;92.19
44044;BME280;29709;52.396;16.796;2024-02-21T01:22:16;102129.11;;;7.40;92.21
44044;BME280;29709;52.396;16.796;2024-02-21T01:25:29;102125.37;;;7.41;92.49
44044;BME280;29709;52.396;16.796;2024-02-21T01:28:42;102109.84;;;7.42;92.41
44044;BME280;29709;52.396;16.796;2024-02-21T01:31:55;102123.03;;;7.48;92.25
44044;BME280;29709;52.396;16.796;2024-02-21T01:35:09;102114.50;;;7.52;92.37
44044;BME280;29709;52.396;16.796;2024-02-21T01:38:22;102119.60;;;7.57;92.28
44044;BME280;29709;52.396;16.796;2024-02-21T01:41:36;102115.13;;;7.56;92.70
44044;BME280;29709;52.396;16.796;2024-02-21T01:44:49;102112.92;;;7.61;92.55
44044;BME280;29709;52.396;16.796;2024-02-21T01:48:02;102116.17;;;7.66;91.97
44044;BME280;29709;52.396;16.796;2024-02-21T01:51:15;102110.70;;;7.66;92.01
44044;BME280;29709;52.396;16.796;2024-02-21T01:54:29;102103.23;;;7.68;92.18
44044;BME280;29709;52.396;16.796;2024-02-21T02:01:25;102113.06;;;7.71;92.51
44044;BME280;29709;52.396;16.796;2024-02-21T02:04:38;102106.27;;;7.76;92.61
44044;BME280;29709;52.396;16.796;2024-02-21T02:07:52;102096.43;;;7.74;92.21
44044;BME280;29709;52.396;16.796;2024-02-21T02:11:06;102094.57;;;7.74;92.30
44044;BME280;29709;52.396;16.796;2024-02-21T02:16:39;102082.62;;;7.75;92.39
44044;BME280;29709;52.396;16.796;2024-02-21T02:19:52;102092.45;;;7.78;92.69
44044;BME280;29709;52.396;16.796;2024-02-21T02:23:12;102088.85;;;7.77;92.75
44044;BME280;29709;52.396;16.796;2024-02-21T02:26:27;102079.52;;;7.80;92.60
44044;BME280;29709;52.396;16.796;2024-02-21T02:29:40;102053.86;;;7.70;92.56
44044;BME280;29709;52.396;16.796;2024-02-21T02:32:53;102078.30;;;7.84;92.95
44044;BME280;29709;52.396;16.796;2024-02-21T02:36:07;102071.59;;;7.88;93.07
44044;BME280;29709;52.396;16.796;2024-02-21T02:39:20;102065.99;;;7.90;92.29
44044;BME280;29709;52.396;16.796;2024-02-21T02:46:16;102069.35;;;7.82;93.18
44044;BME280;29709;52.396;16.796;2024-02-21T02:49:29;102065.37;;;7.86;93.16
44044;BME280;29709;52.396;16.796;2024-02-21T02:52:42;102061.63;;;7.87;92.78
44044;BME280;29709;52.396;16.796;2024-02-21T02:55:55;102050.81;;;7.86;92.91
44044;BME280;29709;52.396;16.796;2024-02-21T02:59:08;102051.94;;;7.83;92.91
44044;BME280;29709;52.396;16.796;2024-02-21T03:02:22;102048.54;;;7.79;92.85
44044;BME280;29709;52.396;16.796;2024-02-21T03:05:35;102048.67;;;7.78;93.13
44044;BME280;29709;52.396;16.796;2024-02-21T03:08:48;102036.09;;;7.75;93.00
44044;BME280;29709;52.396;16.796;2024-02-21T03:12:01;102029.01;;;7.73;93.08
44044;BME280;29709;52.396;16.796;2024-02-21T03:15:17;102032.95;;;7.69;93.30
44044;BME280;29709;52.396;16.796;2024-02-21T03:18:30;102032.21;;;7.67;93.63
44044;BME280;29709;52.396;16.796;2024-02-21T03:21:44;102035.70;;;7.69;93.69
44044;BME280;29709;52.396;16.796;2024-02-21T03:24:57;102033.70;;;7.71;94.07
44044;BME280;29709;52.396;16.796;2024-02-21T03:28:10;102024.40;;;7.73;93.80
44044;BME280;29709;52.396;16.796;2024-02-21T03:31:23;102026.16;;;7.74;93.28
44044;BME280;29709;52.396;16.796;2024-02-21T03:34:37;102019.41;;;7.67;93.31
44044;BME280;29709;52.396;16.796;2024-02-21T03:37:50;102014.19;;;7.64;93.76
44044;BME280;29709;52.396;16.796;2024-02-21T03:41:03;102019.24;;;7.58;93.74
44044;BME280;29709;52.396;16.796;2024-02-21T03:44:16;102010.41;;;7.54;94.04
44044;BME280;29709;52.396;16.796;2024-02-21T03:47:29;102011.53;;;7.51;94.06
44044;BME280;29709;52.396;16.796;2024-02-21T03:50:43;102000.46;;;7.53;94.35
44044;BME280;29709;52.396;16.796;2024-02-21T03:53:56;102004.07;;;7.53;94.51
44044;BME280;29709;52.396;16.796;2024-02-21T04:00:52;102000.68;;;7.50;94.48
44044;BME280;29709;52.396;16.796;2024-02-21T04:04:05;101999.59;;;7.52;94.54
44044;BME280;29709;52.396;16.796;2024-02-21T04:07:18;101997.73;;;7.53;94.37
44044;BME280;29709;52.396;16.796;2024-02-21T04:10:31;101988.53;;;7.54;94.71
44044;BME280;29709;52.396;16.796;2024-02-21T04:17:34;101990.77;;;7.60;94.74
44044;BME280;29709;52.396;16.796;2024-02-21T04:20:47;101981.47;;;7.63;94.59
44044;BME280;29709;52.396;16.796;2024-02-21T04:24:01;101980.69;;;7.61;94.12
44044;BME280;29709;52.396;16.796;2024-02-21T04:27:16;101974.00;;;7.65;94.06
44044;BME280;29709;52.396;16.796;2024-02-21T04:30:29;101971.02;;;7.68;94.11
44044;BME280;29709;52.396;16.796;2024-02-21T04:33:42;101970.16;;;7.67;94.07
44044;BME280;29709;52.396;16.796;2024-02-21T04:36:55;101970.89;;;7.69;94.18
44044;BME280;29709;52.396;16.796;2024-02-21T04:40:09;101961.34;;;7.75;94.12
44044;BME280;29709;52.396;16.796;2024-02-21T04:43:22;101962.22;;;7.75;93.57
44044;BME280;29709;52.396;16.796;2024-02-21T04:46:36;101954.87;;;7.76;93.82
44044;BME280;29709;52.396;16.796;2024-02-21T04:49:50;101948.13;;;7.69;94.24
44044;BME280;29709;52.396;16.796;2024-02-21T04:53:03;101948.13;;;7.69;94.42
44044;BME280;29709;52.396;16.796;2024-02-21T04:56:16;101937.93;;;7.71;94.26
44044;BME280;29709;52.396;16.796;2024-02-21T04:59:29;101941.45;;;7.73;94.28
44044;BME280;29709;52.396;16.796;2024-02-21T05:02:42;101938.59;;;7.74;94.36
44044;BME280;29709;52.396;16.796;2024-02-21T05:05:55;101935.97;;;7.73;94.15
44044;BME280;29709;52.396;16.796;2024-02-21T05:09:09;101936.09;;;7.71;94.08
44044;BME280;29709;52.396;16.796;2024-02-21T05:12:22;101934.58;;;7.67;94.18
44044;BME280;29709;52.396;16.796;2024-02-21T05:15:35;101924.50;;;7.68;94.37
44044;BME280;29709;52.396;16.796;2024-02-21T05:18:48;101922.51;;;7.70;94.52
44044;BME280;29709;52.396;16.796;2024-02-21T05:22:02;101922.64;;;7.68;94.71
44044;BME280;29709;52.396;16.796;2024-02-21T05:25:15;101925.24;;;7.70;94.57
44044;BME280;29709;52.396;16.796;2024-02-21T05:28:31;101911.81;;;7.67;94.47
44044;BME280;29709;52.396;16.796;2024-02-21T05:35:10;101910.82;;;7.68;94.75
44044;BME280;29709;52.396;16.796;2024-02-21T05:38:23;101902.36;;;7.71;94.69
44044;BME280;29709;52.396;16.796;2024-02-21T05:41:36;101899.74;;;7.69;94.97
44044;BME280;29709;52.396;16.796;2024-02-21T05:44:49;101901.39;;;7.72;95.04
44044;BME280;29709;52.396;16.796;2024-02-21T05:48:03;101893.28;;;7.70;94.76
44044;BME280;29709;52.396;16.796;2024-02-21T05:51:17;101895.53;;;7.65;94.99
44044;BME280;29709;52.396;16.796;2024-02-21T05:54:33;101894.80;;;7.63;95.49
44044;BME280;29709;52.396;16.796;2024-02-21T05:57:46;101898.88;;;7.69;94.95
44044;BME280;29709;52.396;16.796;2024-02-21T06:01:00;101899.88;;;7.68;94.78
44044;BME280;29709;52.396;16.796;2024-02-21T06:04:16;101897.88;;;7.70;95.28
44044;BME280;29709;52.396;16.796;2024-02-21T06:07:29;101898.88;;;7.69;95.14
44044;BME280;29709;52.396;16.796;2024-02-21T06:10:42;101893.53;;;7.67;94.95
44044;BME280;29709;52.396;16.796;2024-02-21T06:13:56;101889.92;;;7.67;94.90
44044;BME280;29709;52.396;16.796;2024-02-21T06:17:09;101893.40;;;7.69;95.05
44044;BME280;29709;52.396;16.796;2024-02-21T06:20:22;101887.71;;;7.72;95.03
44044;BME280;29709;52.396;16.796;2024-02-21T06:23:37;101894.05;;;7.72;94.91
44044;BME280;29709;52.396;16.796;2024-02-21T06:26:50;101891.19;;;7.74;95.14
44044;BME280;29709;52.396;16.796;2024-02-21T06:30:04;101884.20;;;7.70;94.95
44044;BME280;29709;52.396;16.796;2024-02-21T06:33:17;101883.33;;;7.69;95.05
44044;BME280;29709;52.396;16.796;2024-02-21T06:36:31;101884.98;;;7.72;94.97
44044;BME280;29709;52.396;16.796;2024-02-21T06:39:44;101881.98;;;7.75;95.17
44044;BME280;29709;52.396;16.796;2024-02-21T06:42:57;101877.37;;;7.75;94.97
44044;BME280;29709;52.396;16.796;2024-02-21T06:46:12;101870.16;;;7.74;94.67
44044;BME280;29709;52.396;16.796;2024-02-21T06:49:30;101875.52;;;7.76;95.09
44044;BME280;29709;52.396;16.796;2024-02-21T06:52:43;101873.51;;;7.78;95.55
44044;BME280;29709;52.396;16.796;2024-02-21T06:55:57;101873.03;;;7.84;95.26
44044;BME280;29709;52.396;16.796;2024-02-21T06:59:11;101862.69;;;7.88;94.95
44044;BME280;29709;52.396;16.796;2024-02-21T07:02:28;101868.42;;;7.85;95.03
44044;BME280;29709;52.396;16.796;2024-02-21T07:05:41;101859.95;;;7.88;95.00
44044;BME280;29709;52.396;16.796;2024-02-21T07:08:55;101861.56;;;7.90;95.25
44044;BME280;29709;52.396;16.796;2024-02-21T07:12:08;101859.70;;;7.91;95.43
44044;BME280;29709;52.396;16.796;2024-02-21T07:15:21;101855.09;;;7.91;94.67
44044;BME280;29709;52.396;16.796;2024-02-21T07:18:34;101848.74;;;7.91;94.40
44044;BME280;29709;52.396;16.796;2024-02-21T07:21:48;101847.40;;;7.85;94.70
44044;BME280;29709;52.396;16.796;2024-02-21T07:25:01;101844.05;;;7.81;95.11
44044;BME280;29709;52.396;16.796;2024-02-21T07:28:14;101833.71;;;7.85;95.14
44044;BME280;29709;52.396;16.796;2024-02-21T07:31:30;101835.93;;;7.91;95.49
44044;BME280;29709;52.396;16.796;2024-02-21T07:34:43;101834.57;;;7.97;94.77
44044;BME280;29709;52.396;16.796;2024-02-21T07:37:56;101838.17;;;7.97;94.56
44044;BME280;29709;52.396;16.796;2024-02-21T07:41:12;101845.26;;;8.00;95.07
44044;BME280;29709;52.396;16.796;2024-02-21T07:44:25;101843.26;;;8.02;94.59
44044;BME280;29709;52.396;16.796;2024-02-21T07:47:38;101830.57;;;8.01;94.69
44044;BME280;29709;52.396;16.796;2024-02-21T07:50:51;101810.53;;;8.00;94.63
44044;BME280;29709;52.396;16.796;2024-02-21T07:54:05;101790.53;;;7.89;94.46
44044;BME280;29709;52.396;16.796;2024-02-21T07:57:18;101813.06;;;7.92;94.76
44044;BME280;29709;52.396;16.796;2024-02-21T08:00:31;101813.41;;;7.99;95.07
44044;BME280;29709;52.396;16.796;2024-02-21T08:03:45;101821.36;;;8.02;95.55
44044;BME280;29709;52.396;16.796;2024-02-21T08:06:58;101826.85;;;8.13;95.20
44044;BME280;29709;52.396;16.796;2024-02-21T08:10:16;101836.03;;;8.23;94.71
44044;BME280;29709;52.396;16.796;2024-02-21T08:13:30;101818.93;;;8.31;94.66
44044;BME280;29709;52.396;16.796;2024-02-21T08:16:43;101831.29;;;8.36;94.49
44044;BME280;29709;52.396;16.796;2024-02-21T08:19:56;101831.90;;;8.40;94.74
44044;BME280;29709;52.396;16.796;2024-02-21T08:23:10;101834.36;;;8.43;94.28
44044;BME280;29709;52.396;16.796;2024-02-21T08:26:24;101836.47;;;8.51;93.97
44044;BME280;29709;52.396;16.796;2024-02-21T08:29:43;101834.46;;;8.53;94.24
44044;BME280;29709;52.396;16.796;2024-02-21T08:32:56;101828.74;;;8.56;94.09
44044;BME280;29709;52.396;16.796;2024-02-21T08:36:20;101822.40;;;8.55;93.68
44044;BME280;29709;52.396;16.796;2024-02-21T08:39:33;101818.79;;;8.55;94.01
44044;BME280;29709;52.396;16.796;2024-02-21T08:42:47;101818.52;;;8.58;94.02
44044;BME280;29709;52.396;16.796;2024-02-21T08:46:01;101811.54;;;8.54;93.36
44044;BME280;29709;52.396;16.796;2024-02-21T08:49:15;101810.34;;;8.47;93.48
44044;BME280;29709;52.396;16.796;2024-02-21T08:52:28;101804.73;;;8.48;93.94
44044;BME280;29709;52.396;16.796;2024-02-21T08:55:41;101804.73;;;8.48;93.50
44044;BME280;29709;52.396;16.796;2024-02-21T08:58:58;101790.16;;;8.48;93.69
44044;BME280;29709;52.396;16.796;2024-02-21T09:02:11;101790.63;;;8.53;94.14
44044;BME280;29709;52.396;16.796;2024-02-21T09:05:24;101787.23;;;8.60;93.59
44044;BME280;29709;52.396;16.796;2024-02-21T09:08:38;101789.70;;;8.63;93.28
44044;BME280;29709;52.396;16.796;2024-02-21T09:11:51;101785.36;;;8.61;93.59
44044;BME280;29709;52.396;16.796;2024-02-21T09:15:06;101780.96;;;8.70;93.63
44044;BME280;29709;52.396;16.796;2024-02-21T09:18:20;101780.45;;;8.76;93.43
44044;BME280;29709;52.396;16.796;2024-02-21T09:21:33;101779.03;;;8.81;93.13
44044;BME280;29709;52.396;16.796;2024-02-21T09:24:46;101779.76;;;8.83;93.22
44044;BME280;29709;52.396;16.796;2024-02-21T09:28:02;101785.25;;;8.83;92.78
44044;BME280;29709;52.396;16.796;2024-02-21T09:31:15;101790.86;;;8.82;92.83
44044;BME280;29709;52.396;16.796;2024-02-21T09:34:29;101786.12;;;8.84;92.72
44044;BME280;29709;52.396;16.796;2024-02-21T09:37:42;101785.38;;;8.82;92.30
44044;BME280;29709;52.396;16.796;2024-02-21T09:41:04;101785.66;;;8.79;92.77
44044;BME280;29709;52.396;16.796;2024-02-21T09:44:19;101775.29;;;8.82;92.48
44044;BME280;29709;52.396;16.796;2024-02-21T09:50:57;101763.66;;;8.90;92.32
44044;BME280;29709;52.396;16.796;2024-02-21T09:54:12;101777.22;;;8.91;91.86
44044;BME280;29709;52.396;16.796;2024-02-21T09:57:25;101773.90;;;8.88;91.91
44044;BME280;29709;52.396;16.796;2024-02-21T10:00:39;101777.37;;;8.90;92.07
44044;BME280;29709;52.396;16.796;2024-02-21T10:03:52;101767.99;;;8.92;91.91
44044;BME280;29709;52.396;16.796;2024-02-21T10:07:05;101768.72;;;8.94;91.92
44044;BME280;29709;52.396;16.796;2024-02-21T10:10:19;101769.80;;;9.03;92.05
44044;BME280;29709;52.396;16.796;2024-02-21T10:13:34;101770.73;;;9.13;91.23
44044;BME280;29709;52.396;16.796;2024-02-21T10:16:56;101765.58;;;9.20;91.35
44044;BME280;29709;52.396;16.796;2024-02-21T10:20:10;101772.12;;;9.29;91.16
44044;BME280;29709;52.396;16.796;2024-02-21T10:23:24;101757.70;;;9.36;90.66
44044;BME280;29709;52.396;16.796;2024-02-21T10:26:37;101759.48;;;9.47;90.69
44044;BME280;29709;52.396;16.796;2024-02-21T10:29:50;101759.37;;;9.48;89.50
44044;BME280;29709;52.396;16.796;2024-02-21T10:33:05;101751.14;;;9.48;89.42
44044;BME280;29709;52.396;16.796;2024-02-21T10:36:19;101756.63;;;9.58;89.73
44044;BME280;29709;52.396;16.796;2024-02-21T10:39:33;101753.82;;;9.69;89.11
44044;BME280;29709;52.396;16.796;2024-02-21T10:42:48;101743.85;;;9.78;89.26
44044;BME280;29709;52.396;16.796;2024-02-21T10:46:04;101738.54;;;9.86;88.80
44044;BME280;29709;52.396;16.796;2024-02-21T10:49:27;101733.79;;;9.98;89.16
44044;BME280;29709;52.396;16.796;2024-02-21T10:52:50;101723.11;;;10.04;88.64
44044;BME280;29709;52.396;16.796;2024-02-21T10:56:16;101714.43;;;10.09;88.00
44044;BME280;29709;52.396;16.796;2024-02-21T10:59:33;101710.67;;;10.20;87.87
44044;BME280;29709;52.396;16.796;2024-02-21T11:02:48;101703.94;;;10.24;87.22
44044;BME280;29709;52.396;16.796;2024-02-21T11:06:03;101703.34;;;10.30;86.44
44044;BME280;29709;52.396;16.796;2024-02-21T11:09:18;101696.55;;;10.24;86.31
44044;BME280;29709;52.396;16.796;2024-02-21T11:12:32;101689.57;;;10.20;86.67
44044;BME280;29709;52.396;16.796;2024-02-21T11:15:48;101677.44;;;10.13;86.13
44044;BME280;29709;52.396;16.796;2024-02-21T11:19:06;101675.82;;;10.10;85.81
44044;BME280;29709;52.396;16.796;2024-02-21T11:22:20;101674.96;;;10.10;86.42
44044;BME280;29709;52.396;16.796;2024-02-21T11:25:37;101671.34;;;10.09;86.47
44044;BME280;29709;52.396;16.796;2024-02-21T11:29:00;101669.62;;;10.18;86.54
44044;BME280;29709;52.396;16.796;2024-02-21T11:32:15;101652.75;;;10.23;86.29
44044;BME280;29709;52.396;16.796;2024-02-21T11:35:32;101657.09;;;10.25;86.04
44044;BME280;29709;52.396;16.796;2024-02-21T11:38:46;101658.80;;;10.26;86.00
44044;BME280;29709;52.396;16.796;2024-02-21T11:42:06;101651.99;;;10.30;85.77
44044;BME280;29709;52.396;16.796;2024-02-21T11:45:25;101641.45;;;10.45;86.32
44044;BME280;29709;52.396;16.796;2024-02-21T11:48:41;101637.66;;;10.56;84.47
44044;BME280;29709;52.396;16.796;2024-02-21T11:52:03;101630.43;;;10.55;84.51
44044;BME280;29709;52.396;16.796;2024-02-21T11:55:20;101638.23;;;10.50;85.00
44044;BME280;29709;52.396;16.796;2024-02-21T11:58:33;101635.64;;;10.48;84.55
44044;BME280;29709;52.396;16.796;2024-02-21T12:01:47;101647.24;;;10.42;84.15
44044;BME280;29709;52.396;16.796;2024-02-21T12:05:01;101643.03;;;10.38;84.11
44044;BME280;29709;52.396;16.796;2024-02-21T12:08:15;101653.31;;;10.36;84.35
44044;BME280;29709;52.396;16.796;2024-02-21T12:11:28;101648.67;;;10.36;83.79
44044;BME280;29709;52.396;16.796;2024-02-21T12:14:41;101644.05;;;10.37;84.20
44044;BME280;29709;52.396;16.796;2024-02-21T12:17:55;101636.67;;;10.37;84.30
44044;BME280;29709;52.396;16.796;2024-02-21T12:21:09;101625.98;;;10.34;83.74
44044;BME280;29709;52.396;16.796;2024-02-21T12:24:25;101620.05;;;10.29;83.98
44044;BME280;29709;52.396;16.796;2024-02-21T12:27:39;101616.16;;;10.32;83.92
44044;BME280;29709;52.396;16.796;2024-02-21T12:30:52;101610.08;;;10.28;83.82
44044;BME280;29709;52.396;16.796;2024-02-21T12:34:05;101619.77;;;10.32;83.76
44044;BME280;29709;52.396;16.796;2024-02-21T12:37:19;101615.55;;;10.38;83.47
44044;BME280;29709;52.396;16.796;2024-02-21T12:40:32;101617.74;;;10.34;83.75
44044;BME280;29709;52.396;16.796;2024-02-21T12:43:46;101605.86;;;10.44;83.62
44044;BME280;29709;52.396;16.796;2024-02-21T12:47:00;101596.60;;;10.45;83.88
44044;BME280;29709;52.396;16.796;2024-02-21T12:50:13;101594.11;;;10.51;83.65
44044;BME280;29709;52.396;16.796;2024-02-21T12:53:28;101585.87;;;10.51;83.51
44044;BME280;29709;52.396;16.796;2024-02-21T12:56:42;101584.73;;;10.54;83.70
44044;BME280;29709;52.396;16.796;2024-02-21T12:59:55;101583.70;;;10.55;83.36
44044;BME280;29709;52.396;16.796;2024-02-21T13:03:09;101572.71;;;10.55;83.30
44044;BME280;29709;52.396;16.796;2024-02-21T13:06:25;101573.27;;;10.58;83.71
44044;BME280;29709;52.396;16.796;2024-02-21T13:09:38;101569.94;;;10.64;83.53
44044;BME280;29709;52.396;16.796;2024-02-21T13:12:51;101569.66;;;10.58;82.77
44044;BME280;29709;52.396;16.796;2024-02-21T13:16:05;101570.52;;;10.58;83.11
44044;BME280;29709;52.396;16.796;2024-02-21T13:19:18;101570.67;;;10.57;83.19
44044;BME280;29709;52.396;16.796;2024-02-21T13:22:32;101572.40;;;10.58;83.04
44044;BME280;29709;52.396;16.796;2024-02-21T13:25:45;101557.80;;;10.57;83.40
44044;BME280;29709;52.396;16.796;2024-02-21T13:28:58;101559.80;;;10.65;83.08
44044;BME280;29709;52.396;16.796;2024-02-21T13:32:12;101565.54;;;10.72;83.38
44044;BME280;29709;52.396;16.796;2024-02-21T13:35:25;101552.54;;;10.74;82.84
44044;BME280;29709;52.396;16.796;2024-02-21T13:38:38;101551.52;;;10.75;82.72
44044;BME280;29709;52.396;16.796;2024-02-21T13:41:52;101539.34;;;10.77;82.52
44044;BME280;29709;52.396;16.796;2024-02-21T13:45:06;101537.15;;;10.81;82.54
44044;BME280;29709;52.396;16.796;2024-02-21T13:48:19;101527.05;;;10.72;82.52
44044;BME280;29709;52.396;16.796;2024-02-21T13:51:34;101530.38;;;10.75;82.61
44044;BME280;29709;52.396;16.796;2024-02-21T13:54:50;101533.13;;;10.75;82.29
44044;BME280;29709;52.396;16.796;2024-02-21T13:58:03;101525.33;;;10.70;82.33
44044;BME280;29709;52.396;16.796;2024-02-21T14:06:34;101518.56;;;10.65;82.39
44044;BME280;29709;52.396;16.796;2024-02-21T14:09:48;101525.80;;;10.66;82.15
44044;BME280;29709;52.396;16.796;2024-02-21T14:13:01;101525.95;;;10.64;81.65
44044;BME280;29709;52.396;16.796;2024-02-21T14:16:16;101531.73;;;10.61;81.85
44044;BME280;29709;52.396;16.796;2024-02-21T14:19:30;101535.34;;;10.62;82.17
44044;BME280;29709;52.396;16.796;2024-02-21T14:22:43;101530.27;;;10.67;81.84
44044;BME280;29709;52.396;16.796;2024-02-21T14:25:56;101521.72;;;10.70;81.92
44044;BME280;29709;52.396;16.796;2024-02-21T14:29:10;101526.66;;;10.66;81.80
44044;BME280;29709;52.396;16.796;2024-02-21T14:32:23;101521.47;;;10.63;81.50
44044;BME280;29709;52.396;16.796;2024-02-21T14:35:37;101515.81;;;10.65;81.40
44044;BME280;29709;52.396;16.796;2024-02-21T14:38:50;101512.91;;;10.66;81.75
44044;BME280;29709;52.396;16.796;2024-02-21T14:42:04;101517.94;;;10.71;81.63
44044;BME280;29709;52.396;16.796;2024-02-21T14:45:17;101514.33;;;10.70;81.69
44044;BME280;29709;52.396;16.796;2024-02-21T14:48:31;101504.34;;;10.69;81.14
44044;BME280;29709;52.396;16.796;2024-02-21T14:51:45;101504.34;;;10.69;81.46
44044;BME280;29709;52.396;16.796;2024-02-21T14:54:58;101499.40;;;10.73;81.07
44044;BME280;29709;52.396;16.796;2024-02-21T14:58:12;101497.55;;;10.74;81.17
44044;BME280;29709;52.396;16.796;2024-02-21T15:01:25;101495.79;;;10.73;81.17
44044;BME280;29709;52.396;16.796;2024-02-21T15:04:39;101494.06;;;10.72;80.96
44044;BME280;29709;52.396;16.796;2024-02-21T15:07:52;101483.92;;;10.72;81.17
44044;BME280;29709;52.396;16.796;2024-02-21T15:11:05;101477.87;;;10.68;81.03
44044;BME280;29709;52.396;16.796;2024-02-21T15:14:18;101478.03;;;10.67;80.95
44044;BME280;29709;52.396;16.796;2024-02-21T15:17:32;101468.77;;;10.68;81.03
44044;BME280;29709;52.396;16.796;2024-02-21T15:20:46;101467.59;;;10.70;81.04
44044;BME280;29709;52.396;16.796;2024-02-21T15:23:59;101475.40;;;10.75;81.13
44044;BME280;29709;52.396;16.796;2024-02-21T15:27:15;101474.66;;;10.73;80.84
44044;BME280;29709;52.396;16.796;2024-02-21T15:30:28;101477.72;;;10.70;81.01
44044;BME280;29709;52.396;16.796;2024-02-21T15:37:27;101469.48;;;10.70;81.52
44044;BME280;29709;52.396;16.796;2024-02-21T15:40:40;101463.98;;;10.70;81.18
44044;BME280;29709;52.396;16.796;2024-02-21T15:43:53;101475.45;;;10.65;81.00
44044;BME280;29709;52.396;16.796;2024-02-21T15:47:09;101476.74;;;10.61;80.88
44044;BME280;29709;52.396;16.796;2024-02-21T15:50:22;101471.41;;;10.60;81.28
44044;BME280;29709;52.396;16.796;2024-02-21T15:53:35;101470.86;;;10.56;81.39
44044;BME280;29709;52.396;16.796;2024-02-21T15:56:51;101463.63;;;10.55;81.25
44044;BME280;29709;52.396;16.796;2024-02-21T16:00:05;101458.52;;;10.60;81.95
44044;BME280;29709;52.396;16.796;2024-02-21T16:03:23;101446.39;;;10.63;81.61
44044;BME280;29709;52.396;16.796;2024-02-21T16:06:36;101450.28;;;10.60;81.66
44044;BME280;29709;52.396;16.796;2024-02-21T16:09:49;101450.44;;;10.59;81.55
44044;BME280;29709;52.396;16.796;2024-02-21T16:13:03;101450.17;;;10.52;81.54
44044;BME280;29709;52.396;16.796;2024-02-21T16:16:16;101450.80;;;10.46;81.79
44044;BME280;29709;52.396;16.796;2024-02-21T16:19:29;101443.88;;;10.42;82.00
44044;BME280;29709;52.396;16.796;2024-02-21T16:22:43;101443.88;;;10.42;82.18
44044;BME280;29709;52.396;16.796;2024-02-21T16:25:57;101442.12;;;10.41;82.05
44044;BME280;29709;52.396;16.796;2024-02-21T16:29:10;101443.06;;;10.32;82.34
44044;BME280;29709;52.396;16.796;2024-02-21T16:32:25;101443.18;;;10.30;82.69
44044;BME280;29709;52.396;16.796;2024-02-21T16:35:40;101440.16;;;10.33;82.66
44044;BME280;29709;52.396;16.796;2024-02-21T16:38:54;101445.38;;;10.27;82.73
44044;BME280;29709;52.396;16.796;2024-02-21T16:42:07;101441.77;;;10.26;83.12
44044;BME280;29709;52.396;16.796;2024-02-21T16:45:20;101436.27;;;10.26;82.74
44044;BME280;29709;52.396;16.796;2024-02-21T16:48:34;101438.16;;;10.26;83.04
44044;BME280;29709;52.396;16.796;2024-02-21T16:51:47;101437.45;;;10.24;83.23
44044;BME280;29709;52.396;16.796;2024-02-21T16:55:01;101439.18;;;10.25;83.30
44044;BME280;29709;52.396;16.796;2024-02-21T16:58:15;101442.08;;;10.23;83.12
44044;BME280;29709;52.396;16.796;2024-02-21T17:01:34;101427.56;;;10.21;83.36
44044;BME280;29709;52.396;16.796;2024-02-21T17:04:51;101438.86;;;10.18;83.22
44044;BME280;29709;52.396;16.796;2024-02-21T17:08:06;101427.17;;;10.16;83.32
44044;BME280;29709;52.396;16.796;2024-02-21T17:11:21;101423.87;;;10.12;83.11
44044;BME280;29709;52.396;16.796;2024-02-21T17:14:34;101421.13;;;10.12;83.93
44044;BME280;29709;52.396;16.796;2024-02-21T17:17:48;101419.40;;;10.11;83.34
44044;BME280;29709;52.396;16.796;2024-02-21T17:21:02;101415.05;;;10.09;83.74